Time;durP1;ratioP1;P1;durP2;ratioP2;P2;SDS_P1;SDS_P2;PMS_P1;PMS_P2;Temp;Humidity;BMP_temperature;BMP_pressure;BME280_temperature;BME280_humidity;BME280_pressure;Samples;Min_cycle;Max_cycle;Signal;HPM_P1;HPM_P2
2022/05/17 00:00:21;;;;;;;5.85;3.10;;;15.00;77.70;;;;;;5054927;28;20888;-70
2022/05/17 00:03:13;;;;;;;8.73;3.60;;;14.90;77.60;;;;;;5055902;28;20753;-68
2022/05/17 00:06:02;;;;;;;5.65;3.50;;;14.80;77.90;;;;;;5055887;28;20224;-69
2022/05/17 00:08:50;;;;;;;6.60;3.03;;;14.70;78.10;;;;;;5056113;28;20228;-69
2022/05/17 00:11:43;;;;;;;7.70;3.03;;;14.70;77.50;;;;;;5055900;28;20706;-68
2022/05/17 00:14:34;;;;;;;4.70;2.90;;;14.60;77.50;;;;;;5053303;28;20253;-68
2022/05/17 00:17:26;;;;;;;8.50;3.45;;;14.50;77.50;;;;;;5052862;28;20224;-69
2022/05/17 00:20:17;;;;;;;5.63;2.88;;;14.50;77.30;;;;;;5051836;28;20220;-69
2022/05/17 00:23:10;;;;;;;4.38;2.60;;;14.50;77.80;;;;;;5054936;28;20936;-68
2022/05/17 00:25:59;;;;;;;4.35;2.83;;;14.50;78.10;;;;;;5052216;28;20221;-71
2022/05/17 00:28:48;;;;;;;9.95;2.90;;;14.60;77.80;;;;;;5054276;28;22190;-70
2022/05/17 00:31:37;;;;;;;6.53;2.80;;;14.50;78.30;;;;;;5056080;28;20228;-70
2022/05/17 00:34:27;;;;;;;7.15;3.00;;;14.50;78.80;;;;;;5054275;28;20208;-70
2022/05/17 00:37:21;;;;;;;5.82;2.90;;;14.20;79.80;;;;;;5070303;28;20628;-70
2022/05/17 00:40:11;;;;;;;5.53;2.80;;;14.20;80.70;;;;;;5053317;28;20868;-70
2022/05/17 00:43:00;;;;;;;7.38;3.00;;;14.20;81.10;;;;;;5054618;28;20242;-69
2022/05/17 00:45:51;;;;;;;9.25;3.03;;;14.20;81.20;;;;;;5049323;28;20236;-70
2022/05/17 00:48:40;;;;;;;4.03;2.72;;;14.10;82.30;;;;;;5054720;28;20889;-69
2022/05/17 00:51:30;;;;;;;5.40;3.03;;;14.00;82.50;;;;;;5054220;28;20220;-70
2022/05/17 00:54:21;;;;;;;5.45;3.03;;;14.00;83.00;;;;;;5056027;28;20212;-70
2022/05/17 00:57:18;;;;;;;7.57;3.10;;;14.00;83.20;;;;;;5054671;28;20281;-69
2022/05/17 01:00:12;;;;;;;6.00;2.88;;;13.90;83.90;;;;;;5054627;28;20734;-69
2022/05/17 01:03:05;;;;;;;8.07;2.90;;;13.90;83.50;;;;;;5054861;28;20604;-68
2022/05/17 01:05:56;;;;;;;6.43;3.10;;;13.80;84.80;;;;;;5055863;28;20224;-70
2022/05/17 01:08:45;;;;;;;8.02;3.20;;;13.80;85.60;;;;;;5052370;28;20717;-70
2022/05/17 01:11:35;;;;;;;4.68;3.03;;;13.90;85.20;;;;;;5053327;28;20306;-70
2022/05/17 01:17:34;;;;;;;6.97;3.13;;;13.60;85.70;;;;;;5051450;28;20428;-70
2022/05/17 01:20:24;;;;;;;4.68;2.72;;;13.60;86.00;;;;;;5067227;28;20358;-69
2022/05/17 01:23:14;;;;;;;8.32;3.13;;;13.70;86.60;;;;;;5060448;28;20241;-69
2022/05/17 01:26:03;;;;;;;6.43;2.83;;;13.60;87.40;;;;;;5057067;28;20212;-69
2022/05/17 01:28:52;;;;;;;5.85;2.95;;;13.50;87.30;;;;;;5051665;28;20224;-70
2022/05/17 01:31:41;;;;;;;5.07;2.90;;;13.40;88.00;;;;;;5052946;28;20758;-69
2022/05/17 01:34:30;;;;;;;7.70;3.28;;;13.40;89.30;;;;;;5053232;28;20228;-68
2022/05/17 01:37:23;;;;;;;4.90;2.63;;;13.10;90.20;;;;;;5051596;28;20226;-70
2022/05/17 01:40:14;;;;;;;4.93;2.88;;;13.10;91.00;;;;;;5053859;28;20303;-69
2022/05/17 01:43:06;;;;;;;7.60;2.92;;;13.00;91.60;;;;;;5055100;28;20220;-68
2022/05/17 01:45:55;;;;;;;9.40;3.10;;;13.00;92.00;;;;;;5056048;28;20231;-68
2022/05/17 01:48:48;;;;;;;7.50;2.60;;;13.00;92.60;;;;;;5052778;28;20255;-66
2022/05/17 01:51:37;;;;;;;5.32;2.70;;;13.20;92.40;;;;;;5055726;28;20235;-69
2022/05/17 01:54:26;;;;;;;5.82;3.00;;;13.00;92.60;;;;;;5054244;28;20763;-70
2022/05/17 01:57:16;;;;;;;4.95;2.60;;;12.90;93.20;;;;;;5052996;28;20658;-69
2022/05/17 02:00:07;;;;;;;5.30;2.90;;;12.80;93.60;;;;;;5053812;28;20216;-69
2022/05/17 02:02:56;;;;;;;4.80;3.00;;;12.80;94.00;;;;;;5051390;28;20305;-71
2022/05/17 02:05:45;;;;;;;6.43;2.95;;;12.80;94.20;;;;;;5051579;28;20220;-70
2022/05/17 02:08:34;;;;;;;4.45;2.75;;;12.70;94.40;;;;;;5054959;28;20701;-69
2022/05/17 02:11:22;;;;;;;9.07;2.80;;;12.70;94.70;;;;;;5055598;28;20624;-69
2022/05/17 02:14:17;;;;;;;6.90;2.72;;;12.70;95.00;;;;;;5079951;28;20224;-69
2022/05/17 02:17:06;;;;;;;8.32;2.90;;;12.60;94.90;;;;;;5054279;28;20285;-69
2022/05/17 02:19:54;;;;;;;6.60;2.78;;;12.50;95.40;;;;;;5056342;28;20901;-69
2022/05/17 02:22:43;;;;;;;3.95;2.30;;;12.50;95.00;;;;;;5065671;28;20934;-70
2022/05/17 02:25:32;;;;;;;7.20;2.20;;;12.50;93.50;;;;;;5052348;28;20232;-69
2022/05/17 02:28:27;;;;;;;2.33;1.63;;;12.30;92.50;;;;;;5056398;28;20227;-69
2022/05/17 02:31:18;;;;;;;3.42;2.20;;;12.20;91.10;;;;;;5054064;28;20229;-70
2022/05/17 02:34:07;;;;;;;2.80;1.80;;;12.40;90.60;;;;;;5056532;28;20378;-69
2022/05/17 02:36:56;;;;;;;4.25;2.55;;;12.20;88.60;;;;;;5054019;28;20833;-70
2022/05/17 02:39:46;;;;;;;3.80;1.70;;;12.20;88.60;;;;;;5059198;28;20235;-69
2022/05/17 02:42:35;;;;;;;3.47;1.50;;;12.20;86.90;;;;;;5055123;28;20362;-70
2022/05/17 02:45:24;;;;;;;4.05;1.60;;;12.00;85.10;;;;;;5053524;28;20224;-69
2022/05/17 02:48:14;;;;;;;4.70;1.70;;;12.10;85.50;;;;;;5056707;28;20217;-69
2022/05/17 02:51:11;;;;;;;3.50;1.70;;;12.00;84.30;;;;;;5058732;28;20220;-69
2022/05/17 02:53:59;;;;;;;2.72;1.70;;;12.00;83.50;;;;;;5059273;28;20212;-69
2022/05/17 02:56:48;;;;;;;3.00;1.70;;;12.10;82.40;;;;;;5054050;28;20223;-69
2022/05/17 02:59:37;;;;;;;2.53;1.33;;;11.90;82.00;;;;;;5059639;28;20231;-68
2022/05/17 03:02:26;;;;;;;2.50;1.60;;;11.80;80.70;;;;;;5053316;28;20311;-68
2022/05/17 03:05:17;;;;;;;3.80;1.70;;;12.00;81.20;;;;;;5051227;28;20715;-69
2022/05/17 03:08:10;;;;;;;3.53;1.80;;;12.00;80.90;;;;;;5055494;28;20224;-69
2022/05/17 03:11:00;;;;;;;3.75;1.60;;;12.00;81.00;;;;;;5055253;28;20232;-69
2022/05/17 03:13:49;;;;;;;4.63;1.60;;;11.90;81.40;;;;;;5056926;28;20591;-69
2022/05/17 03:16:37;;;;;;;5.53;1.75;;;12.00;81.00;;;;;;5057544;28;20265;-70
2022/05/17 03:19:26;;;;;;;3.03;1.50;;;11.90;81.20;;;;;;5058456;28;20277;-69
2022/05/17 03:22:16;;;;;;;3.60;1.60;;;11.70;81.50;;;;;;5059314;28;20710;-70
2022/05/17 03:25:06;;;;;;;2.00;1.42;;;12.00;81.30;;;;;;5059299;28;20646;-69
2022/05/17 03:28:13;;;;;;;4.03;1.48;;;11.90;81.50;;;;;;5061085;28;20273;-70
2022/05/17 03:31:02;;;;;;;3.63;1.70;;;11.80;82.50;;;;;;5057533;28;20263;-69
2022/05/17 03:33:51;;;;;;;2.90;1.50;;;11.70;83.50;;;;;;5056791;28;20706;-69
2022/05/17 03:36:40;;;;;;;3.17;1.80;;;11.80;83.70;;;;;;5059850;28;20602;-70
2022/05/17 03:39:30;;;;;;;2.83;1.58;;;11.60;85.80;;;;;;5058732;28;20902;-71
2022/05/17 03:42:20;;;;;;;3.08;1.80;;;11.80;86.80;;;;;;5051955;28;20315;-69
2022/05/17 03:45:10;;;;;;;3.47;1.80;;;11.80;87.90;;;;;;5066099;28;20739;-70
2022/05/17 03:47:58;;;;;;;3.60;1.80;;;11.70;88.40;;;;;;5055734;28;20216;-68
2022/05/17 03:50:47;;;;;;;6.18;2.08;;;11.70;90.00;;;;;;5054029;28;20228;-70
2022/05/17 03:53:39;;;;;;;4.80;1.92;;;11.70;91.00;;;;;;5065503;28;20265;-68
2022/05/17 03:56:29;;;;;;;5.53;1.85;;;11.60;90.90;;;;;;5055579;28;20225;-69
2022/05/17 03:59:18;;;;;;;6.20;2.05;;;11.50;91.90;;;;;;5058870;28;20232;-70
2022/05/17 04:02:06;;;;;;;3.70;1.77;;;11.50;92.70;;;;;;5047153;28;20212;-68
2022/05/17 04:04:56;;;;;;;6.35;2.13;;;11.50;92.40;;;;;;5054173;28;20885;-69
2022/05/17 04:07:45;;;;;;;2.90;2.08;;;11.50;93.10;;;;;;5054351;28;20971;-70
2022/05/17 04:10:33;;;;;;;3.15;1.85;;;11.40;93.00;;;;;;5061622;28;20227;-68
2022/05/17 04:13:26;;;;;;;3.13;1.70;;;11.60;92.70;;;;;;5056797;28;20231;-70
2022/05/17 04:16:15;;;;;;;2.28;1.55;;;11.60;92.50;;;;;;5055213;28;20998;-69
2022/05/17 04:19:04;;;;;;;2.38;1.60;;;11.50;92.30;;;;;;5058361;28;20374;-69
2022/05/17 04:21:53;;;;;;;3.22;1.65;;;11.40;92.30;;;;;;5053445;28;20311;-70
2022/05/17 04:24:42;;;;;;;3.50;1.80;;;11.60;91.50;;;;;;5056082;28;20640;-68
2022/05/17 04:27:30;;;;;;;6.63;2.00;;;11.70;90.70;;;;;;5057949;28;20219;-69
2022/05/17 04:30:21;;;;;;;4.15;1.90;;;11.80;90.50;;;;;;5056770;28;20244;-69
2022/05/17 04:33:10;;;;;;;3.95;2.00;;;12.10;90.00;;;;;;5056989;28;20335;-70
2022/05/17 04:36:00;;;;;;;2.42;1.55;;;12.00;88.70;;;;;;5054158;28;21129;-69
2022/05/17 04:38:49;;;;;;;4.00;1.88;;;12.30;88.20;;;;;;5056821;28;20686;-68
2022/05/17 04:41:38;;;;;;;2.95;1.52;;;12.40;85.90;;;;;;5050034;28;20847;-68
2022/05/17 04:44:27;;;;;;;6.88;2.13;;;12.40;84.60;;;;;;5054846;28;20212;-69
2022/05/17 04:47:17;;;;;;;2.78;1.67;;;12.40;83.90;;;;;;5063214;28;20243;-70
2022/05/17 04:50:07;;;;;;;3.80;1.95;;;12.00;83.70;;;;;;5050988;28;20944;-69
2022/05/17 04:52:56;;;;;;;3.63;1.60;;;12.20;83.00;;;;;;5052635;28;20753;-69
2022/05/17 04:55:46;;;;;;;4.70;1.48;;;12.40;81.30;;;;;;5050396;28;20224;-70
2022/05/17 04:58:35;;;;;;;3.30;1.60;;;12.20;79.70;;;;;;5054855;28;20220;-70
2022/05/17 05:01:24;;;;;;;6.95;1.83;;;11.80;80.20;;;;;;5055307;28;20419;-69
2022/05/17 05:04:18;;;;;;;5.72;1.30;;;11.70;80.70;;;;;;5054736;28;20542;-68
2022/05/17 05:07:08;;;;;;;5.18;1.50;;;11.50;79.80;;;;;;5054145;28;20256;-70
2022/05/17 05:09:57;;;;;;;3.63;1.63;;;11.50;80.20;;;;;;5051389;28;20224;-71
2022/05/17 05:12:46;;;;;;;7.32;1.67;;;11.80;80.40;;;;;;5054835;28;20220;-70
2022/05/17 05:15:37;;;;;;;6.32;1.52;;;11.80;80.80;;;;;;5057497;28;20663;-70
2022/05/17 05:18:25;;;;;;;3.50;1.60;;;11.80;81.20;;;;;;5055768;28;20570;-71
2022/05/17 05:21:16;;;;;;;4.53;1.70;;;12.40;80.20;;;;;;5057257;28;20271;-70
2022/05/17 05:24:07;;;;;;;2.22;1.80;;;12.80;77.40;;;;;;5057841;28;20229;-70
2022/05/17 05:26:55;;;;;;;9.93;1.52;;;13.20;75.10;;;;;;5054173;28;20230;-71
2022/05/17 05:29:44;;;;;;;4.28;2.22;;;13.20;74.90;;;;;;5051671;28;20606;-71
2022/05/17 05:32:33;;;;;;;3.13;1.58;;;13.10;73.40;;;;;;5056008;28;20285;-70
2022/05/17 05:35:22;;;;;;;5.50;1.50;;;13.20;74.00;;;;;;5057565;28;20733;-69
2022/05/17 05:38:13;;;;;;;3.08;1.60;;;13.10;73.00;;;;;;5052003;28;20290;-70
2022/05/17 05:41:01;;;;;;;5.38;1.58;;;13.40;73.20;;;;;;5053436;28;20229;-68
2022/05/17 05:43:50;;;;;;;9.43;2.00;;;13.30;72.70;;;;;;5071637;28;20228;-68
2022/05/17 05:46:41;;;;;;;5.82;1.77;;;13.40;74.10;;;;;;5054219;28;20726;-68
2022/05/17 05:49:30;;;;;;;9.05;1.70;;;13.60;74.00;;;;;;5054037;28;20319;-68
2022/05/17 05:52:19;;;;;;;5.70;1.70;;;13.70;73.50;;;;;;5053745;28;20268;-71
2022/05/17 05:55:19;;;;;;;6.45;1.58;;;14.00;71.10;;;;;;5069610;28;20212;-68
2022/05/17 05:58:10;;;;;;;4.10;1.52;;;13.40;71.50;;;;;;5057242;28;20344;-69
2022/05/17 06:01:02;;;;;;;5.63;1.40;;;12.90;71.80;;;;;;5054115;28;20956;-70
2022/05/17 06:03:51;;;;;;;5.75;1.80;;;12.80;72.60;;;;;;5055476;28;20591;-71
2022/05/17 06:06:42;;;;;;;5.40;1.60;;;13.00;73.30;;;;;;5054952;28;20792;-71
2022/05/17 06:09:31;;;;;;;5.00;1.60;;;13.10;72.90;;;;;;5054481;28;20274;-70
2022/05/17 06:12:22;;;;;;;7.43;1.65;;;13.40;72.50;;;;;;5061732;28;20224;-70
2022/05/17 06:15:11;;;;;;;2.38;1.35;;;13.40;72.40;;;;;;5051630;28;20331;-68
2022/05/17 06:18:02;;;;;;;5.72;2.17;;;13.10;72.00;;;;;;5059396;28;20236;-69
2022/05/17 06:20:53;;;;;;;12.20;1.80;;;13.30;71.10;;;;;;5059436;28;20241;-69
2022/05/17 06:23:42;;;;;;;4.38;1.38;;;13.20;72.00;;;;;;5056291;28;20220;-71
2022/05/17 06:26:30;;;;;;;3.80;1.35;;;13.40;72.50;;;;;;5059419;28;20649;-69
2022/05/17 06:29:20;;;;;;;3.42;1.58;;;13.20;71.70;;;;;;5055055;28;20734;-70
2022/05/17 06:32:10;;;;;;;4.53;1.75;;;13.50;71.50;;;;;;5057529;28;20231;-70
2022/05/17 06:34:58;;;;;;;5.25;1.85;;;13.30;72.70;;;;;;5054200;28;20579;-68
2022/05/17 06:37:47;;;;;;;5.43;1.63;;;13.30;72.90;;;;;;5055691;28;20232;-68
2022/05/17 06:40:37;;;;;;;7.80;1.55;;;13.50;73.70;;;;;;5055164;28;20236;-69
2022/05/17 06:43:27;;;;;;;6.60;1.70;;;13.40;70.30;;;;;;5056982;28;20240;-69
2022/05/17 06:46:17;;;;;;;4.20;1.33;;;13.60;69.20;;;;;;5052779;28;20239;-69
2022/05/17 06:49:06;;;;;;;7.45;1.50;;;14.10;68.50;;;;;;5052365;28;20643;-69
2022/05/17 06:51:57;;;;;;;11.20;1.58;;;14.20;69.00;;;;;;5055431;28;20320;-70
2022/05/17 06:54:45;;;;;;;4.72;1.42;;;14.30;66.20;;;;;;5051989;28;20216;-72
2022/05/17 06:57:35;;;;;;;5.47;1.55;;;14.20;64.50;;;;;;5055983;28;20222;-70
2022/05/17 07:00:24;;;;;;;3.97;0.90;;;14.30;60.90;;;;;;5058171;28;20677;-69
2022/05/17 07:03:18;;;;;;;3.95;1.10;;;14.40;59.30;;;;;;5062081;28;20676;-70
2022/05/17 07:06:07;;;;;;;9.93;1.67;;;14.60;59.60;;;;;;5057157;28;20236;-68
2022/05/17 07:08:56;;;;;;;4.13;1.10;;;14.50;59.50;;;;;;5059841;28;20228;-69
2022/05/17 07:14:51;;;;;;;4.78;1.08;;;14.40;59.50;;;;;;5058071;28;20227;-69
2022/05/17 07:17:40;;;;;;;2.95;0.93;;;14.80;59.20;;;;;;5059264;28;20517;-69
2022/05/17 07:20:30;;;;;;;4.40;1.13;;;14.60;59.20;;;;;;5060018;28;20224;-72
2022/05/17 07:23:21;;;;;;;5.85;1.25;;;15.00;59.60;;;;;;5056682;28;20661;-70
2022/05/17 07:26:10;;;;;;;4.40;1.25;;;15.30;59.60;;;;;;5057153;28;20768;-71
2022/05/17 07:28:59;;;;;;;5.57;1.08;;;16.00;59.00;;;;;;5060011;28;20228;-72
2022/05/17 07:31:47;;;;;;;8.57;1.25;;;15.80;59.00;;;;;;5056830;28;20224;-71
2022/05/17 07:34:36;;;;;;;1.55;0.93;;;16.60;58.60;;;;;;5055903;28;20313;-71
2022/05/17 07:37:26;;;;;;;2.40;0.88;;;17.00;56.50;;;;;;5054261;28;20376;-70
2022/05/17 07:40:17;;;;;;;3.83;0.90;;;16.60;55.20;;;;;;5061703;28;20222;-72
2022/05/17 07:43:06;;;;;;;5.30;0.88;;;17.50;54.70;;;;;;5062340;28;20333;-70
2022/05/17 07:45:55;;;;;;;3.90;1.00;;;17.40;51.90;;;;;;5061431;28;20305;-70
2022/05/17 07:48:44;;;;;;;8.20;1.08;;;16.60;53.00;;;;;;5061558;28;20567;-69
2022/05/17 07:51:33;;;;;;;3.72;0.70;;;15.80;54.00;;;;;;5056349;28;20224;-70
2022/05/17 07:54:23;;;;;;;4.63;1.00;;;15.60;54.00;;;;;;5059365;28;20212;-71
2022/05/17 07:57:11;;;;;;;9.48;1.33;;;16.30;53.40;;;;;;5059700;28;20224;-70
2022/05/17 08:00:00;;;;;;;4.38;1.00;;;19.00;51.60;;;;;;5059429;28;20326;-70
2022/05/17 08:02:59;;;;;;;6.10;0.90;;;19.90;51.60;;;;;;5054755;28;20220;-70
2022/05/17 08:05:48;;;;;;;4.22;0.82;;;21.00;49.80;;;;;;5060151;28;20804;-71
2022/05/17 08:08:37;;;;;;;2.90;1.02;;;19.70;49.80;;;;;;5061322;28;20257;-72
2022/05/17 08:11:27;;;;;;;4.70;0.98;;;21.10;49.40;;;;;;5054470;28;20619;-70
2022/05/17 08:14:16;;;;;;;5.30;1.02;;;20.20;49.40;;;;;;5058703;28;20376;-70
2022/05/17 08:17:07;;;;;;;7.45;0.90;;;21.40;49.80;;;;;;5057222;28;20221;-70
2022/05/17 08:19:56;;;;;;;7.60;1.20;;;22.30;48.00;;;;;;5058568;28;20700;-72
2022/05/17 08:22:46;;;;;;;4.35;1.00;;;22.90;47.00;;;;;;5057966;28;20724;-70
2022/05/17 08:28:43;;;;;;;3.15;1.30;;;22.10;47.10;;;;;;5063183;28;20219;-70
2022/05/17 08:31:32;;;;;;;7.65;1.17;;;22.40;46.30;;;;;;5054256;28;20276;-71
2022/05/17 08:34:20;;;;;;;4.35;1.10;;;22.10;47.60;;;;;;5059882;28;20208;-73
2022/05/17 08:37:09;;;;;;;2.60;1.00;;;21.80;46.70;;;;;;5059226;28;20426;-73
2022/05/17 08:39:58;;;;;;;7.75;0.90;;;21.60;47.20;;;;;;5058469;28;20694;-73
2022/05/17 08:42:59;;;;;;;2.95;0.93;;;22.50;47.00;;;;;;5058436;28;20216;-70
2022/05/17 08:46:11;;;;;;;4.00;1.00;;;20.00;48.40;;;;;;5057446;28;20310;-71
2022/05/17 08:49:05;;;;;;;6.55;1.40;;;21.30;48.50;;;;;;5055524;28;20217;-69
2022/05/17 08:51:58;;;;;;;3.88;0.95;;;21.80;49.10;;;;;;5057586;28;20241;-70
2022/05/17 08:54:50;;;;;;;3.65;1.20;;;22.40;47.10;;;;;;5063979;28;20228;-69
2022/05/17 08:57:42;;;;;;;2.92;1.10;;;23.20;46.90;;;;;;5060151;28;20224;-70
2022/05/17 09:00:36;;;;;;;5.60;1.15;;;23.50;45.40;;;;;;5060572;28;20216;-72
2022/05/17 09:03:49;;;;;;;4.97;1.10;;;23.30;46.00;;;;;;5059404;28;20652;-71
2022/05/17 09:06:46;;;;;;;3.53;1.10;;;24.20;45.20;;;;;;5057337;28;20236;-71
2022/05/17 09:09:48;;;;;;;3.47;1.35;;;25.10;43.30;;;;;;5053824;28;20239;-71
2022/05/17 09:12:43;;;;;;;2.30;1.10;;;26.10;44.10;;;;;;5060628;28;20852;-71
2022/05/17 09:15:33;;;;;;;3.33;1.20;;;24.90;44.00;;;;;;5071764;28;20209;-70
2022/05/17 09:18:24;;;;;;;5.43;1.60;;;24.70;44.30;;;;;;5059721;28;20242;-70
2022/05/17 09:21:30;;;;;;;3.90;1.00;;;24.70;44.00;;;;;;5047844;28;20220;-70
2022/05/17 09:24:22;;;;;;;1.83;0.90;;;25.80;43.30;;;;;;5056262;28;20531;-71
2022/05/17 09:27:21;;;;;;;5.40;1.08;;;23.80;43.60;;;;;;5056458;28;20309;-70
2022/05/17 09:30:13;;;;;;;2.63;0.90;;;23.50;43.90;;;;;;5056157;28;20220;-73
2022/05/17 09:33:06;;;;;;;3.72;1.23;;;21.90;45.90;;;;;;5053587;28;20959;-72
2022/05/17 09:35:58;;;;;;;4.05;1.17;;;21.20;48.10;;;;;;5072039;28;20224;-70
2022/05/17 09:38:50;;;;;;;5.30;0.90;;;21.90;47.00;;;;;;5058672;28;21382;-69
2022/05/17 09:41:41;;;;;;;2.03;1.00;;;21.90;46.70;;;;;;5058003;28;20220;-71
2022/05/17 09:44:52;;;;;;;2.90;1.00;;;21.60;46.90;;;;;;5056010;28;20533;-73
2022/05/17 09:47:44;;;;;;;3.03;1.15;;;23.40;45.50;;;;;;5061265;28;20602;-72
2022/05/17 09:53:56;;;;;;;8.75;1.88;;;24.60;43.70;;;;;;5061685;28;20231;-71
2022/05/17 09:56:45;;;;;;;6.28;1.02;;;26.20;43.30;;;;;;5063023;28;20220;-72
2022/05/17 09:59:34;;;;;;;4.38;0.80;;;24.70;42.40;;;;;;5063931;28;20281;-72
2022/05/17 10:02:42;;;;;;;3.63;1.00;;;24.20;42.00;;;;;;5061690;28;20240;-72
2022/05/17 10:05:45;;;;;;;1.75;0.82;;;23.50;42.30;;;;;;5061392;28;20224;-71
2022/05/17 10:08:41;;;;;;;2.50;1.20;;;22.90;42.30;;;;;;5056659;28;20223;-72
2022/05/17 10:11:42;;;;;;;2.88;0.80;;;21.90;43.80;;;;;;5054989;28;20208;-71
2022/05/17 10:14:35;;;;;;;4.63;0.98;;;21.70;44.20;;;;;;5059140;28;20354;-72
2022/05/17 10:17:35;;;;;;;4.38;1.10;;;21.90;43.90;;;;;;5062337;28;20250;-72
2022/05/17 10:20:27;;;;;;;2.80;1.00;;;21.40;43.70;;;;;;5059856;28;20237;-71
2022/05/17 10:23:26;;;;;;;1.27;0.95;;;21.70;44.10;;;;;;5057704;28;20430;-71
2022/05/17 10:26:22;;;;;;;5.30;1.10;;;21.20;43.80;;;;;;5060119;28;20223;-73
2022/05/17 10:29:24;;;;;;;5.05;0.90;;;22.50;43.90;;;;;;5058064;28;20214;-72
2022/05/17 10:32:20;;;;;;;2.53;1.00;;;23.10;42.10;;;;;;5057697;28;20242;-71
2022/05/17 10:35:34;;;;;;;5.20;0.85;;;22.40;43.00;;;;;;5057418;28;20220;-71
2022/05/17 10:38:25;;;;;;;4.80;0.82;;;23.00;42.80;;;;;;5072409;28;20231;-72
2022/05/17 10:41:18;;;;;;;3.88;1.00;;;23.80;42.50;;;;;;5060632;28;20227;-71
2022/05/17 10:44:06;;;;;;;2.55;0.90;;;23.40;41.40;;;;;;5053667;28;20683;-73
2022/05/17 10:47:09;;;;;;;3.15;1.30;;;24.60;41.00;;;;;;5057156;28;20225;-72
2022/05/17 10:50:12;;;;;;;3.67;1.30;;;26.30;40.20;;;;;;5055778;28;20692;-73
2022/05/17 10:53:20;;;;;;;1.90;0.90;;;25.60;37.80;;;;;;5059976;28;20257;-72
2022/05/17 10:56:26;;;;;;;3.38;1.00;;;24.90;39.60;;;;;;5054809;28;20316;-73
2022/05/17 10:59:27;;;;;;;2.95;1.20;;;26.50;39.90;;;;;;5058755;28;20228;-72
2022/05/17 11:02:42;;;;;;;1.05;0.77;;;25.70;38.80;;;;;;5055209;28;20228;-71
2022/05/17 11:05:38;;;;;;;4.18;0.88;;;25.60;39.10;;;;;;5066370;28;20295;-71
2022/05/17 11:08:38;;;;;;;2.38;1.05;;;27.30;38.80;;;;;;5060963;28;20208;-70
2022/05/17 11:11:42;;;;;;;1.60;1.20;;;25.70;38.20;;;;;;5063343;28;20227;-71
2022/05/17 11:14:38;;;;;;;2.78;1.52;;;25.60;39.40;;;;;;5054846;28;20242;-72
2022/05/17 11:17:35;;;;;;;8.25;3.13;;;27.00;39.60;;;;;;5059552;28;20216;-72
2022/05/17 11:20:29;;;;;;;4.07;1.00;;;29.30;37.60;;;;;;5057528;28;20847;-74
2022/05/17 12:17:02;;;;;;;6.57;1.40;;;21.60;42.60;;;;;;5067694;27;21198;-71
2022/05/17 12:20:00;;;;;;;4.97;1.05;;;21.50;44.70;;;;;;5027744;28;20331;-72
2022/05/17 12:22:54;;;;;;;6.93;1.80;;;22.90;43.70;;;;;;5029810;28;20221;-74
2022/05/17 12:25:52;;;;;;;5.40;1.90;;;23.40;42.80;;;;;;5040701;28;20232;-72
2022/05/17 12:30:52;;;;;;;4.53;2.58;;;23.80;42.30;;;;;;5028615;28;20227;-72
2022/05/17 12:32:10;;;;;;;7.25;3.97;;;25.10;40.90;;;;;;4989191;28;20228;-72
2022/05/17 12:34:59;;;;;;;11.25;5.18;;;21.70;41.70;;;;;;5030329;28;20437;-73
2022/05/17 12:37:48;;;;;;;12.23;5.60;;;21.10;44.50;;;;;;5038132;28;20590;-72
2022/05/17 12:43:43;;;;;;;6.72;2.13;;;21.60;45.50;;;;;;5036363;28;20225;-72
2022/05/17 12:46:36;;;;;;;2.92;1.60;;;19.80;46.70;;;;;;5031210;28;20603;-72
2022/05/17 12:49:28;;;;;;;3.60;1.42;;;20.00;47.60;;;;;;5055737;28;20216;-72
2022/05/17 12:52:25;;;;;;;2.53;1.10;;;20.00;47.60;;;;;;5052110;28;20231;-72
2022/05/17 12:55:19;;;;;;;5.35;1.45;;;19.60;47.80;;;;;;5054051;28;20232;-72
2022/05/17 12:58:10;;;;;;;1.92;1.10;;;20.00;48.30;;;;;;5038414;28;20231;-71
2022/05/17 13:01:00;;;;;;;6.47;1.10;;;19.90;48.10;;;;;;5030526;28;20564;-71
2022/05/17 13:03:49;;;;;;;3.92;1.13;;;20.10;48.10;;;;;;5035900;28;21168;-71
2022/05/17 13:06:41;;;;;;;3.60;1.27;;;20.00;47.70;;;;;;5034853;28;20370;-72
2022/05/17 13:09:30;;;;;;;3.95;1.23;;;20.20;48.10;;;;;;5035229;28;20228;-73
2022/05/17 13:12:19;;;;;;;2.88;1.00;;;20.20;47.80;;;;;;5049413;28;20363;-72
2022/05/17 13:15:13;;;;;;;4.38;1.35;;;19.90;48.30;;;;;;5032645;28;20660;-72
2022/05/17 13:18:04;;;;;;;7.57;1.30;;;20.00;48.10;;;;;;5034622;28;20231;-72
2022/05/17 13:20:53;;;;;;;4.97;1.10;;;19.70;48.40;;;;;;5031823;28;20232;-71
2022/05/17 13:23:46;;;;;;;3.15;1.00;;;19.90;48.20;;;;;;5033189;28;20217;-72
2022/05/17 13:26:37;;;;;;;3.83;1.33;;;19.50;48.20;;;;;;5046425;28;20221;-72
2022/05/17 13:29:30;;;;;;;1.95;1.00;;;19.10;49.50;;;;;;5021300;28;20224;-72
2022/05/17 13:32:22;;;;;;;4.80;1.30;;;19.30;49.40;;;;;;5015821;28;20232;-72
2022/05/17 13:35:18;;;;;;;4.22;1.00;;;19.30;48.50;;;;;;5034068;28;20244;-71
2022/05/17 13:38:21;;;;;;;3.00;1.13;;;19.30;49.10;;;;;;5024291;28;20225;-70
2022/05/17 13:41:32;;;;;;;5.25;1.73;;;19.90;49.20;;;;;;5034240;28;20217;-71
2022/05/17 13:44:35;;;;;;;3.33;1.00;;;19.90;49.00;;;;;;5007809;28;20824;-71
2022/05/17 13:47:28;;;;;;;6.78;1.40;;;19.50;48.70;;;;;;5042743;28;20220;-72
2022/05/17 13:50:18;;;;;;;2.33;1.05;;;19.50;48.90;;;;;;5021299;28;20233;-71
2022/05/17 13:53:10;;;;;;;4.03;1.20;;;19.00;48.80;;;;;;5021134;28;20222;-71
2022/05/17 13:56:00;;;;;;;3.20;1.05;;;19.00;49.70;;;;;;5017851;28;20286;-71
2022/05/17 13:58:50;;;;;;;3.00;0.90;;;18.70;49.40;;;;;;5006902;28;22772;-72
2022/05/17 14:01:50;;;;;;;1.98;1.00;;;18.70;49.70;;;;;;5019274;28;20233;-72
2022/05/17 14:04:41;;;;;;;2.70;1.20;;;18.60;49.70;;;;;;5037656;28;20208;-72
2022/05/17 14:07:34;;;;;;;2.95;1.00;;;18.60;50.10;;;;;;5038594;28;20217;-73
2022/05/17 14:13:31;;;;;;;3.45;1.10;;;18.50;49.90;;;;;;5034581;28;20226;-72
2022/05/17 14:16:25;;;;;;;3.80;1.15;;;18.60;49.90;;;;;;5015433;28;20228;-75
2022/05/17 14:19:18;;;;;;;5.35;1.02;;;18.30;50.50;;;;;;5019472;28;20213;-71
2022/05/17 14:22:09;;;;;;;1.42;1.00;;;18.70;50.20;;;;;;5020082;28;20231;-72
2022/05/17 14:24:58;;;;;;;2.60;1.02;;;18.60;50.40;;;;;;5038042;28;20311;-72
2022/05/17 14:27:47;;;;;;;1.85;1.10;;;18.70;50.10;;;;;;5040742;28;20231;-72
2022/05/17 14:30:38;;;;;;;4.22;1.30;;;19.00;50.00;;;;;;5036114;28;20245;-71
2022/05/17 14:33:29;;;;;;;1.45;0.80;;;19.30;49.90;;;;;;5036206;28;20213;-72
2022/05/17 14:36:20;;;;;;;3.13;0.90;;;19.10;49.30;;;;;;5037243;28;20232;-72
2022/05/17 14:39:09;;;;;;;7.38;1.48;;;18.50;49.90;;;;;;5033720;28;20332;-70
2022/05/17 14:42:09;;;;;;;3.63;1.20;;;18.30;50.50;;;;;;5038374;28;20228;-70
2022/05/17 14:44:57;;;;;;;6.05;1.00;;;18.20;50.60;;;;;;5037923;28;20228;-71
2022/05/17 14:47:47;;;;;;;4.40;1.05;;;18.20;50.80;;;;;;5011737;28;20225;-71
2022/05/17 14:50:38;;;;;;;2.15;0.90;;;18.20;51.30;;;;;;5000715;28;20308;-72
2022/05/17 14:53:26;;;;;;;3.95;1.10;;;18.20;50.70;;;;;;5014216;28;20248;-70
2022/05/17 14:56:15;;;;;;;3.20;1.10;;;17.80;51.30;;;;;;5033661;28;20233;-71
2022/05/17 14:59:04;;;;;;;3.88;1.02;;;17.50;51.50;;;;;;5020156;28;20226;-72
2022/05/17 15:01:53;;;;;;;4.45;1.05;;;17.50;51.80;;;;;;5015172;28;20225;-71
2022/05/17 15:04:43;;;;;;;2.65;1.17;;;17.60;52.00;;;;;;5016477;28;20229;-70
2022/05/17 15:07:37;;;;;;;4.80;1.20;;;17.40;52.10;;;;;;5029505;28;20233;-70
2022/05/17 15:10:29;;;;;;;2.42;0.98;;;17.50;52.10;;;;;;5022835;28;20251;-69
2022/05/17 15:13:17;;;;;;;6.10;0.93;;;17.40;51.90;;;;;;5021722;28;20225;-70
2022/05/17 15:16:06;;;;;;;4.32;1.10;;;17.60;52.00;;;;;;5018079;28;20221;-72
2022/05/17 15:18:55;;;;;;;3.50;1.25;;;17.90;52.00;;;;;;5025850;28;20228;-71
2022/05/17 15:21:44;;;;;;;3.78;1.20;;;17.70;52.00;;;;;;5040639;28;20699;-70
2022/05/17 15:24:34;;;;;;;4.57;1.20;;;17.70;52.10;;;;;;5047436;28;20271;-84
2022/05/17 15:27:25;;;;;;;1.88;0.90;;;17.40;52.40;;;;;;5013181;28;20213;-85
2022/05/17 15:30:14;;;;;;;2.42;1.13;;;17.30;53.00;;;;;;5033780;28;20248;-84
2022/05/17 15:33:04;;;;;;;3.33;1.10;;;17.40;53.00;;;;;;5026241;28;20351;-70
2022/05/17 15:35:53;;;;;;;6.43;1.20;;;18.10;52.50;;;;;;5012628;28;20236;-70
2022/05/17 15:38:41;;;;;;;2.72;1.20;;;17.70;51.60;;;;;;5017098;28;20597;-70
2022/05/17 15:41:32;;;;;;;2.75;1.10;;;17.30;51.90;;;;;;5030652;28;20239;-71
2022/05/17 15:44:21;;;;;;;4.18;1.13;;;17.50;52.00;;;;;;5039936;28;20228;-70
2022/05/17 15:53:36;;;;;;;3.55;1.20;;;16.90;52.10;;;;;;5018471;28;20213;-71
2022/05/17 15:56:25;;;;;;;4.28;1.20;;;16.80;52.60;;;;;;5033677;28;20225;-84
2022/05/17 15:59:19;;;;;;;3.05;0.98;;;16.90;52.70;;;;;;5024687;28;20218;-69
2022/05/17 16:02:08;;;;;;;3.22;1.30;;;16.70;52.60;;;;;;5017333;28;20222;-70
2022/05/17 16:04:58;;;;;;;6.55;1.00;;;16.70;52.60;;;;;;5017418;28;20225;-71
2022/05/17 16:08:09;;;;;;;8.63;1.20;;;17.00;52.40;;;;;;5017026;28;20234;-69
2022/05/17 16:11:47;;;;;;;5.03;1.27;;;16.90;52.20;;;;;;5010444;28;20588;-70